sensor_id;sensor_type;location;lat;lon;timestamp;P1;durP1;ratioP1;P2;durP2;ratioP2
49858;SDS011;35756;52.346;13.622;2023-05-29T00:01:08;5.63;;;3.38;;
49858;SDS011;35756;52.346;13.622;2023-05-29T00:03:34;12.85;;;4.10;;
49858;SDS011;35756;52.346;13.622;2023-05-29T00:06:01;9.15;;;3.78;;
49858;SDS011;35756;52.346;13.622;2023-05-29T00:08:27;10.98;;;3.95;;
49858;SDS011;35756;52.346;13.622;2023-05-29T00:10:52;8.25;;;3.88;;
49858;SDS011;35756;52.346;13.622;2023-05-29T00:13:18;10.77;;;4.25;;
49858;SDS011;35756;52.346;13.622;2023-05-29T00:15:43;8.60;;;3.88;;
49858;SDS011;35756;52.346;13.622;2023-05-29T00:18:08;5.43;;;3.72;;
49858;SDS011;35756;52.346;13.622;2023-05-29T00:20:33;8.30;;;3.90;;
49858;SDS011;35756;52.346;13.622;2023-05-29T00:22:59;10.52;;;3.97;;
49858;SDS011;35756;52.346;13.622;2023-05-29T00:25:24;7.85;;;4.00;;
49858;SDS011;35756;52.346;13.622;2023-05-29T00:27:50;6.93;;;3.85;;
49858;SDS011;35756;52.346;13.622;2023-05-29T00:30:15;9.85;;;3.85;;
49858;SDS011;35756;52.346;13.622;2023-05-29T00:32:40;9.00;;;4.50;;
49858;SDS011;35756;52.346;13.622;2023-05-29T00:35:06;8.75;;;4.10;;
49858;SDS011;35756;52.346;13.622;2023-05-29T00:37:31;8.40;;;3.75;;
49858;SDS011;35756;52.346;13.622;2023-05-29T00:39:57;8.95;;;4.00;;
49858;SDS011;35756;52.346;13.622;2023-05-29T00:42:22;9.43;;;4.85;;
49858;SDS011;35756;52.346;13.622;2023-05-29T00:44:47;10.45;;;4.38;;
49858;SDS011;35756;52.346;13.622;2023-05-29T00:47:13;10.57;;;4.43;;
49858;SDS011;35756;52.346;13.622;2023-05-29T00:49:38;9.65;;;3.67;;
49858;SDS011;35756;52.346;13.622;2023-05-29T00:52:04;7.97;;;3.90;;
49858;SDS011;35756;52.346;13.622;2023-05-29T00:54:31;9.98;;;4.95;;
49858;SDS011;35756;52.346;13.622;2023-05-29T00:56:57;8.45;;;4.30;;
49858;SDS011;35756;52.346;13.622;2023-05-29T00:59:23;7.88;;;4.88;;
49858;SDS011;35756;52.346;13.622;2023-05-29T01:01:51;9.48;;;4.15;;
49858;SDS011;35756;52.346;13.622;2023-05-29T01:04:17;8.30;;;4.30;;
49858;SDS011;35756;52.346;13.622;2023-05-29T01:06:42;8.10;;;4.22;;
49858;SDS011;35756;52.346;13.622;2023-05-29T01:09:08;8.02;;;3.60;;
49858;SDS011;35756;52.346;13.622;2023-05-29T01:11:54;9.52;;;3.90;;
49858;SDS011;35756;52.346;13.622;2023-05-29T01:14:43;10.02;;;4.00;;
49858;SDS011;35756;52.346;13.622;2023-05-29T01:17:21;8.68;;;3.95;;
49858;SDS011;35756;52.346;13.622;2023-05-29T01:25:52;10.98;;;4.75;;
49858;SDS011;35756;52.346;13.622;2023-05-29T01:28:25;7.88;;;3.88;;
49858;SDS011;35756;52.346;13.622;2023-05-29T01:30:53;7.65;;;4.07;;
49858;SDS011;35756;52.346;13.622;2023-05-29T01:33:19;7.75;;;3.95;;
49858;SDS011;35756;52.346;13.622;2023-05-29T01:35:45;10.23;;;4.28;;
49858;SDS011;35756;52.346;13.622;2023-05-29T01:38:10;9.40;;;4.57;;
49858;SDS011;35756;52.346;13.622;2023-05-29T01:40:35;9.77;;;4.10;;
49858;SDS011;35756;52.346;13.622;2023-05-29T01:43:01;10.18;;;4.22;;
49858;SDS011;35756;52.346;13.622;2023-05-29T01:45:26;10.35;;;4.10;;
49858;SDS011;35756;52.346;13.622;2023-05-29T01:47:52;8.70;;;4.15;;
49858;SDS011;35756;52.346;13.622;2023-05-29T01:50:17;8.82;;;4.22;;
49858;SDS011;35756;52.346;13.622;2023-05-29T01:52:43;10.50;;;3.90;;
49858;SDS011;35756;52.346;13.622;2023-05-29T01:55:08;6.38;;;3.75;;
49858;SDS011;35756;52.346;13.622;2023-05-29T01:57:34;9.43;;;4.43;;
49858;SDS011;35756;52.346;13.622;2023-05-29T02:00:00;8.07;;;4.03;;
49858;SDS011;35756;52.346;13.622;2023-05-29T02:02:26;9.35;;;4.18;;
49858;SDS011;35756;52.346;13.622;2023-05-29T02:04:52;9.63;;;4.50;;
49858;SDS011;35756;52.346;13.622;2023-05-29T02:07:18;9.68;;;4.57;;
49858;SDS011;35756;52.346;13.622;2023-05-29T02:09:44;11.20;;;4.70;;
49858;SDS011;35756;52.346;13.622;2023-05-29T02:12:09;10.68;;;4.60;;
49858;SDS011;35756;52.346;13.622;2023-05-29T02:14:34;7.40;;;4.28;;
49858;SDS011;35756;52.346;13.622;2023-05-29T02:17:00;7.53;;;4.25;;
49858;SDS011;35756;52.346;13.622;2023-05-29T02:19:26;6.97;;;4.75;;
49858;SDS011;35756;52.346;13.622;2023-05-29T02:21:51;10.10;;;4.13;;
49858;SDS011;35756;52.346;13.622;2023-05-29T02:24:17;9.02;;;4.00;;
49858;SDS011;35756;52.346;13.622;2023-05-29T02:26:42;7.35;;;4.40;;
49858;SDS011;35756;52.346;13.622;2023-05-29T02:29:07;9.65;;;4.13;;
49858;SDS011;35756;52.346;13.622;2023-05-29T02:31:33;8.68;;;4.60;;
49858;SDS011;35756;52.346;13.622;2023-05-29T02:33:58;9.55;;;5.03;;
49858;SDS011;35756;52.346;13.622;2023-05-29T02:36:24;9.10;;;4.20;;
49858;SDS011;35756;52.346;13.622;2023-05-29T02:38:49;9.40;;;4.55;;
49858;SDS011;35756;52.346;13.622;2023-05-29T02:41:14;11.25;;;4.53;;
49858;SDS011;35756;52.346;13.622;2023-05-29T02:43:40;6.30;;;3.70;;
49858;SDS011;35756;52.346;13.622;2023-05-29T02:46:05;10.95;;;4.22;;
49858;SDS011;35756;52.346;13.622;2023-05-29T02:48:30;8.80;;;4.68;;
49858;SDS011;35756;52.346;13.622;2023-05-29T02:50:55;10.63;;;4.63;;
49858;SDS011;35756;52.346;13.622;2023-05-29T02:53:21;9.77;;;4.63;;
49858;SDS011;35756;52.346;13.622;2023-05-29T02:55:46;8.40;;;4.32;;
49858;SDS011;35756;52.346;13.622;2023-05-29T02:58:11;8.30;;;4.20;;
49858;SDS011;35756;52.346;13.622;2023-05-29T03:00:37;15.45;;;4.32;;
49858;SDS011;35756;52.346;13.622;2023-05-29T03:03:02;8.27;;;4.80;;
49858;SDS011;35756;52.346;13.622;2023-05-29T03:05:28;12.68;;;4.75;;
49858;SDS011;35756;52.346;13.622;2023-05-29T03:07:53;8.32;;;4.80;;
49858;SDS011;35756;52.346;13.622;2023-05-29T03:10:18;10.07;;;4.57;;
49858;SDS011;35756;52.346;13.622;2023-05-29T03:12:44;10.13;;;4.50;;
49858;SDS011;35756;52.346;13.622;2023-05-29T03:15:09;9.48;;;4.35;;
49858;SDS011;35756;52.346;13.622;2023-05-29T03:17:35;9.60;;;4.30;;
49858;SDS011;35756;52.346;13.622;2023-05-29T03:20:03;9.32;;;4.28;;
49858;SDS011;35756;52.346;13.622;2023-05-29T03:22:31;8.75;;;4.68;;
49858;SDS011;35756;52.346;13.622;2023-05-29T03:24:56;9.60;;;4.60;;
49858;SDS011;35756;52.346;13.622;2023-05-29T03:27:22;9.85;;;4.78;;
49858;SDS011;35756;52.346;13.622;2023-05-29T03:29:47;9.02;;;4.15;;
49858;SDS011;35756;52.346;13.622;2023-05-29T03:32:12;13.25;;;5.00;;
49858;SDS011;35756;52.346;13.622;2023-05-29T03:34:37;8.18;;;3.45;;
49858;SDS011;35756;52.346;13.622;2023-05-29T03:37:03;7.90;;;3.90;;
49858;SDS011;35756;52.346;13.622;2023-05-29T03:39:28;9.15;;;4.25;;
49858;SDS011;35756;52.346;13.622;2023-05-29T03:41:53;7.55;;;4.47;;
49858;SDS011;35756;52.346;13.622;2023-05-29T03:44:19;8.60;;;3.78;;
49858;SDS011;35756;52.346;13.622;2023-05-29T03:46:45;8.45;;;3.78;;
49858;SDS011;35756;52.346;13.622;2023-05-29T03:49:10;8.40;;;4.07;;
49858;SDS011;35756;52.346;13.622;2023-05-29T03:51:35;11.27;;;4.03;;
49858;SDS011;35756;52.346;13.622;2023-05-29T03:54:01;6.00;;;3.72;;
49858;SDS011;35756;52.346;13.622;2023-05-29T03:56:26;6.90;;;4.03;;
49858;SDS011;35756;52.346;13.622;2023-05-29T03:58:51;7.15;;;4.20;;
49858;SDS011;35756;52.346;13.622;2023-05-29T04:01:17;8.02;;;4.72;;
49858;SDS011;35756;52.346;13.622;2023-05-29T04:03:42;8.45;;;3.97;;
49858;SDS011;35756;52.346;13.622;2023-05-29T04:06:08;11.38;;;4.28;;
49858;SDS011;35756;52.346;13.622;2023-05-29T04:08:34;9.20;;;4.40;;
49858;SDS011;35756;52.346;13.622;2023-05-29T04:10:59;5.95;;;3.58;;
49858;SDS011;35756;52.346;13.622;2023-05-29T04:13:25;7.97;;;4.10;;
49858;SDS011;35756;52.346;13.622;2023-05-29T04:15:50;12.35;;;4.35;;
49858;SDS011;35756;52.346;13.622;2023-05-29T04:18:17;8.68;;;4.13;;
49858;SDS011;35756;52.346;13.622;2023-05-29T04:20:42;11.52;;;4.85;;
49858;SDS011;35756;52.346;13.622;2023-05-29T04:23:10;9.82;;;4.25;;
49858;SDS011;35756;52.346;13.622;2023-05-29T04:25:35;9.13;;;4.65;;
49858;SDS011;35756;52.346;13.622;2023-05-29T04:28:01;8.38;;;4.30;;
49858;SDS011;35756;52.346;13.622;2023-05-29T04:30:27;7.95;;;3.90;;
49858;SDS011;35756;52.346;13.622;2023-05-29T04:32:53;7.53;;;4.00;;
49858;SDS011;35756;52.346;13.622;2023-05-29T04:35:18;10.43;;;4.13;;
49858;SDS011;35756;52.346;13.622;2023-05-29T04:37:44;9.68;;;4.22;;
49858;SDS011;35756;52.346;13.622;2023-05-29T04:40:10;6.25;;;3.53;;
49858;SDS011;35756;52.346;13.622;2023-05-29T04:42:36;11.40;;;4.03;;
49858;SDS011;35756;52.346;13.622;2023-05-29T04:45:02;8.55;;;3.58;;
49858;SDS011;35756;52.346;13.622;2023-05-29T04:47:29;5.88;;;3.72;;
49858;SDS011;35756;52.346;13.622;2023-05-29T04:49:57;5.50;;;3.53;;
49858;SDS011;35756;52.346;13.622;2023-05-29T04:52:24;5.32;;;2.83;;
49858;SDS011;35756;52.346;13.622;2023-05-29T04:54:49;7.35;;;3.55;;
49858;SDS011;35756;52.346;13.622;2023-05-29T04:57:15;6.63;;;3.15;;
49858;SDS011;35756;52.346;13.622;2023-05-29T04:59:41;5.72;;;3.17;;
49858;SDS011;35756;52.346;13.622;2023-05-29T05:02:06;7.95;;;3.30;;
49858;SDS011;35756;52.346;13.622;2023-05-29T05:04:32;7.75;;;3.47;;
49858;SDS011;35756;52.346;13.622;2023-05-29T05:06:57;9.25;;;3.55;;
49858;SDS011;35756;52.346;13.622;2023-05-29T05:09:22;7.43;;;3.10;;
49858;SDS011;35756;52.346;13.622;2023-05-29T05:11:48;11.85;;;3.35;;
49858;SDS011;35756;52.346;13.622;2023-05-29T05:14:13;7.30;;;3.90;;
49858;SDS011;35756;52.346;13.622;2023-05-29T05:16:38;10.52;;;3.33;;
49858;SDS011;35756;52.346;13.622;2023-05-29T05:19:03;5.40;;;2.80;;
49858;SDS011;35756;52.346;13.622;2023-05-29T05:21:29;6.07;;;2.92;;
49858;SDS011;35756;52.346;13.622;2023-05-29T05:23:56;9.98;;;3.25;;
49858;SDS011;35756;52.346;13.622;2023-05-29T05:26:21;6.47;;;3.45;;
49858;SDS011;35756;52.346;13.622;2023-05-29T05:28:47;5.97;;;3.03;;
49858;SDS011;35756;52.346;13.622;2023-05-29T05:31:12;5.93;;;2.83;;
49858;SDS011;35756;52.346;13.622;2023-05-29T05:33:37;7.45;;;3.00;;
49858;SDS011;35756;52.346;13.622;2023-05-29T05:36:03;6.65;;;3.20;;
49858;SDS011;35756;52.346;13.622;2023-05-29T05:38:28;5.47;;;2.63;;
49858;SDS011;35756;52.346;13.622;2023-05-29T05:40:53;4.85;;;2.60;;
49858;SDS011;35756;52.346;13.622;2023-05-29T05:43:19;4.95;;;2.60;;
49858;SDS011;35756;52.346;13.622;2023-05-29T05:45:44;6.40;;;2.58;;
49858;SDS011;35756;52.346;13.622;2023-05-29T05:48:10;5.72;;;2.40;;
49858;SDS011;35756;52.346;13.622;2023-05-29T05:50:35;4.65;;;2.95;;
49858;SDS011;35756;52.346;13.622;2023-05-29T05:53:01;5.93;;;2.47;;
49858;SDS011;35756;52.346;13.622;2023-05-29T05:55:26;6.32;;;2.40;;
49858;SDS011;35756;52.346;13.622;2023-05-29T05:57:52;4.63;;;2.60;;
49858;SDS011;35756;52.346;13.622;2023-05-29T06:00:18;5.22;;;2.60;;
49858;SDS011;35756;52.346;13.622;2023-05-29T06:02:43;5.88;;;2.72;;
49858;SDS011;35756;52.346;13.622;2023-05-29T06:05:10;3.50;;;2.40;;
49858;SDS011;35756;52.346;13.622;2023-05-29T06:07:36;6.47;;;3.15;;
49858;SDS011;35756;52.346;13.622;2023-05-29T06:10:01;6.20;;;3.13;;
49858;SDS011;35756;52.346;13.622;2023-05-29T06:12:28;6.07;;;2.80;;
49858;SDS011;35756;52.346;13.622;2023-05-29T06:14:53;4.80;;;2.20;;
49858;SDS011;35756;52.346;13.622;2023-05-29T06:17:19;4.13;;;2.50;;
49858;SDS011;35756;52.346;13.622;2023-05-29T06:19:44;5.57;;;2.35;;
49858;SDS011;35756;52.346;13.622;2023-05-29T06:22:09;3.70;;;2.20;;
49858;SDS011;35756;52.346;13.622;2023-05-29T06:24:35;4.57;;;2.40;;
49858;SDS011;35756;52.346;13.622;2023-05-29T06:27:00;4.97;;;2.63;;
49858;SDS011;35756;52.346;13.622;2023-05-29T06:29:26;4.35;;;2.40;;
49858;SDS011;35756;52.346;13.622;2023-05-29T06:31:51;3.58;;;2.20;;
49858;SDS011;35756;52.346;13.622;2023-05-29T06:34:16;3.67;;;2.20;;
49858;SDS011;35756;52.346;13.622;2023-05-29T06:36:42;3.65;;;2.20;;
49858;SDS011;35756;52.346;13.622;2023-05-29T06:39:07;3.80;;;2.10;;
49858;SDS011;35756;52.346;13.622;2023-05-29T06:41:32;4.57;;;2.20;;
49858;SDS011;35756;52.346;13.622;2023-05-29T06:43:58;4.18;;;2.28;;
49858;SDS011;35756;52.346;13.622;2023-05-29T06:46:23;5.28;;;2.45;;
49858;SDS011;35756;52.346;13.622;2023-05-29T06:48:48;6.50;;;2.20;;
49858;SDS011;35756;52.346;13.622;2023-05-29T06:51:14;7.30;;;3.28;;
49858;SDS011;35756;52.346;13.622;2023-05-29T06:53:39;3.65;;;1.92;;
49858;SDS011;35756;52.346;13.622;2023-05-29T06:56:05;4.53;;;2.20;;
49858;SDS011;35756;52.346;13.622;2023-05-29T06:58:30;4.00;;;2.10;;
49858;SDS011;35756;52.346;13.622;2023-05-29T07:00:56;3.20;;;1.98;;
49858;SDS011;35756;52.346;13.622;2023-05-29T07:03:21;3.60;;;2.00;;
49858;SDS011;35756;52.346;13.622;2023-05-29T07:05:46;3.83;;;2.08;;
49858;SDS011;35756;52.346;13.622;2023-05-29T07:08:12;2.97;;;2.03;;
49858;SDS011;35756;52.346;13.622;2023-05-29T07:10:37;4.53;;;2.40;;
49858;SDS011;35756;52.346;13.622;2023-05-29T07:13:02;4.32;;;2.10;;
49858;SDS011;35756;52.346;13.622;2023-05-29T07:15:27;3.75;;;2.10;;
49858;SDS011;35756;52.346;13.622;2023-05-29T07:17:53;3.03;;;1.75;;
49858;SDS011;35756;52.346;13.622;2023-05-29T07:20:18;5.13;;;2.10;;
49858;SDS011;35756;52.346;13.622;2023-05-29T07:22:45;2.85;;;1.73;;
49858;SDS011;35756;52.346;13.622;2023-05-29T07:25:10;4.30;;;1.80;;
49858;SDS011;35756;52.346;13.622;2023-05-29T07:27:35;4.13;;;2.50;;
49858;SDS011;35756;52.346;13.622;2023-05-29T07:30:01;3.00;;;1.98;;
49858;SDS011;35756;52.346;13.622;2023-05-29T07:32:26;3.05;;;1.88;;
49858;SDS011;35756;52.346;13.622;2023-05-29T07:34:51;3.80;;;2.25;;
49858;SDS011;35756;52.346;13.622;2023-05-29T07:37:17;4.38;;;2.30;;
49858;SDS011;35756;52.346;13.622;2023-05-29T07:39:44;4.35;;;2.30;;
49858;SDS011;35756;52.346;13.622;2023-05-29T07:42:09;4.03;;;1.90;;
49858;SDS011;35756;52.346;13.622;2023-05-29T07:44:34;3.63;;;2.05;;
49858;SDS011;35756;52.346;13.622;2023-05-29T07:47:00;3.60;;;2.17;;
49858;SDS011;35756;52.346;13.622;2023-05-29T07:49:25;3.78;;;2.00;;
49858;SDS011;35756;52.346;13.622;2023-05-29T07:51:50;3.88;;;2.00;;
49858;SDS011;35756;52.346;13.622;2023-05-29T07:54:16;4.95;;;2.50;;
49858;SDS011;35756;52.346;13.622;2023-05-29T07:56:45;4.05;;;2.10;;
49858;SDS011;35756;52.346;13.622;2023-05-29T07:59:10;5.07;;;2.10;;
49858;SDS011;35756;52.346;13.622;2023-05-29T08:01:36;4.30;;;2.00;;
49858;SDS011;35756;52.346;13.622;2023-05-29T08:04:02;2.97;;;1.90;;
49858;SDS011;35756;52.346;13.622;2023-05-29T08:06:27;3.25;;;2.20;;
49858;SDS011;35756;52.346;13.622;2023-05-29T08:08:53;5.53;;;2.13;;
49858;SDS011;35756;52.346;13.622;2023-05-29T08:11:18;3.92;;;2.38;;
49858;SDS011;35756;52.346;13.622;2023-05-29T08:13:44;2.83;;;1.92;;
49858;SDS011;35756;52.346;13.622;2023-05-29T08:16:09;3.25;;;2.00;;
49858;SDS011;35756;52.346;13.622;2023-05-29T08:18:35;5.20;;;2.35;;
49858;SDS011;35756;52.346;13.622;2023-05-29T08:21:01;4.78;;;2.38;;
49858;SDS011;35756;52.346;13.622;2023-05-29T08:23:26;5.55;;;2.45;;
49858;SDS011;35756;52.346;13.622;2023-05-29T08:25:52;4.63;;;2.00;;
49858;SDS011;35756;52.346;13.622;2023-05-29T08:28:17;3.75;;;2.40;;
49858;SDS011;35756;52.346;13.622;2023-05-29T08:30:42;5.03;;;2.35;;
49858;SDS011;35756;52.346;13.622;2023-05-29T08:33:08;7.30;;;2.45;;
49858;SDS011;35756;52.346;13.622;2023-05-29T08:35:33;3.42;;;2.10;;
49858;SDS011;35756;52.346;13.622;2023-05-29T08:37:58;4.78;;;2.10;;
49858;SDS011;35756;52.346;13.622;2023-05-29T08:40:25;4.57;;;2.58;;
49858;SDS011;35756;52.346;13.622;2023-05-29T08:42:56;3.40;;;2.40;;
49858;SDS011;35756;52.346;13.622;2023-05-29T08:45:22;6.63;;;2.28;;
49858;SDS011;35756;52.346;13.622;2023-05-29T08:47:52;5.07;;;2.40;;
49858;SDS011;35756;52.346;13.622;2023-05-29T08:50:19;6.68;;;2.47;;
49858;SDS011;35756;52.346;13.622;2023-05-29T08:52:45;4.25;;;2.50;;
49858;SDS011;35756;52.346;13.622;2023-05-29T08:55:10;5.32;;;2.72;;
49858;SDS011;35756;52.346;13.622;2023-05-29T08:57:36;4.43;;;2.63;;
49858;SDS011;35756;52.346;13.622;2023-05-29T09:00:04;4.18;;;2.40;;
49858;SDS011;35756;52.346;13.622;2023-05-29T09:02:34;6.30;;;2.70;;
49858;SDS011;35756;52.346;13.622;2023-05-29T09:05:00;4.22;;;2.50;;
49858;SDS011;35756;52.346;13.622;2023-05-29T09:07:26;4.90;;;2.58;;
49858;SDS011;35756;52.346;13.622;2023-05-29T09:09:51;4.72;;;2.38;;
49858;SDS011;35756;52.346;13.622;2023-05-29T09:12:16;3.65;;;2.42;;
49858;SDS011;35756;52.346;13.622;2023-05-29T09:14:42;6.38;;;2.70;;
49858;SDS011;35756;52.346;13.622;2023-05-29T09:17:09;4.57;;;2.17;;
49858;SDS011;35756;52.346;13.622;2023-05-29T09:19:35;4.65;;;2.42;;
49858;SDS011;35756;52.346;13.622;2023-05-29T09:22:02;3.90;;;2.10;;
49858;SDS011;35756;52.346;13.622;2023-05-29T09:24:28;6.68;;;2.42;;
49858;SDS011;35756;52.346;13.622;2023-05-29T09:26:55;4.38;;;2.30;;
49858;SDS011;35756;52.346;13.622;2023-05-29T09:29:21;5.35;;;2.50;;
49858;SDS011;35756;52.346;13.622;2023-05-29T09:31:46;5.90;;;2.58;;
49858;SDS011;35756;52.346;13.622;2023-05-29T09:34:12;4.68;;;2.38;;
49858;SDS011;35756;52.346;13.622;2023-05-29T09:36:37;4.53;;;2.72;;
49858;SDS011;35756;52.346;13.622;2023-05-29T09:39:03;6.43;;;2.70;;
49858;SDS011;35756;52.346;13.622;2023-05-29T09:41:28;6.68;;;2.58;;
49858;SDS011;35756;52.346;13.622;2023-05-29T09:43:56;6.38;;;3.28;;
49858;SDS011;35756;52.346;13.622;2023-05-29T09:46:21;4.55;;;2.55;;
49858;SDS011;35756;52.346;13.622;2023-05-29T09:48:47;6.32;;;2.83;;
49858;SDS011;35756;52.346;13.622;2023-05-29T09:51:23;4.32;;;2.67;;
49858;SDS011;35756;52.346;13.622;2023-05-29T09:53:49;5.45;;;2.47;;
49858;SDS011;35756;52.346;13.622;2023-05-29T09:56:16;4.38;;;2.90;;
49858;SDS011;35756;52.346;13.622;2023-05-29T09:58:42;5.28;;;2.72;;
49858;SDS011;35756;52.346;13.622;2023-05-29T10:01:14;8.23;;;3.20;;
49858;SDS011;35756;52.346;13.622;2023-05-29T10:03:41;5.13;;;2.70;;
49858;SDS011;35756;52.346;13.622;2023-05-29T10:06:07;7.32;;;3.30;;
49858;SDS011;35756;52.346;13.622;2023-05-29T10:08:37;5.60;;;2.85;;
49858;SDS011;35756;52.346;13.622;2023-05-29T10:11:03;4.70;;;2.92;;
49858;SDS011;35756;52.346;13.622;2023-05-29T10:13:34;4.70;;;2.45;;
49858;SDS011;35756;52.346;13.622;2023-05-29T10:16:01;5.97;;;2.85;;
49858;SDS011;35756;52.346;13.622;2023-05-29T10:18:32;6.38;;;3.38;;
49858;SDS011;35756;52.346;13.622;2023-05-29T10:21:01;6.65;;;4.32;;
49858;SDS011;35756;52.346;13.622;2023-05-29T10:23:26;4.40;;;2.80;;
49858;SDS011;35756;52.346;13.622;2023-05-29T10:25:53;6.13;;;2.83;;
49858;SDS011;35756;52.346;13.622;2023-05-29T10:28:36;4.55;;;3.03;;
49858;SDS011;35756;52.346;13.622;2023-05-29T10:31:08;5.85;;;2.85;;
49858;SDS011;35756;52.346;13.622;2023-05-29T10:33:42;5.82;;;3.03;;
49858;SDS011;35756;52.346;13.622;2023-05-29T10:36:14;5.70;;;2.70;;
49858;SDS011;35756;52.346;13.622;2023-05-29T10:38:46;7.03;;;2.55;;
49858;SDS011;35756;52.346;13.622;2023-05-29T10:41:28;6.38;;;3.25;;
49858;SDS011;35756;52.346;13.622;2023-05-29T10:44:00;4.88;;;3.15;;
49858;SDS011;35756;52.346;13.622;2023-05-29T10:49:16;5.97;;;2.70;;
49858;SDS011;35756;52.346;13.622;2023-05-29T10:51:41;5.53;;;2.97;;
49858;SDS011;35756;52.346;13.622;2023-05-29T10:54:07;4.15;;;2.67;;
49858;SDS011;35756;52.346;13.622;2023-05-29T10:56:32;4.85;;;2.70;;
49858;SDS011;35756;52.346;13.622;2023-05-29T10:58:58;4.82;;;2.58;;
49858;SDS011;35756;52.346;13.622;2023-05-29T11:01:25;5.25;;;2.55;;
49858;SDS011;35756;52.346;13.622;2023-05-29T11:03:53;4.15;;;2.78;;
49858;SDS011;35756;52.346;13.622;2023-05-29T11:06:21;5.00;;;2.90;;
49858;SDS011;35756;52.346;13.622;2023-05-29T11:08:55;4.35;;;2.72;;
49858;SDS011;35756;52.346;13.622;2023-05-29T11:13:53;6.32;;;3.10;;
49858;SDS011;35756;52.346;13.622;2023-05-29T11:18:57;5.47;;;2.80;;
49858;SDS011;35756;52.346;13.622;2023-05-29T11:23:55;7.75;;;2.90;;
49858;SDS011;35756;52.346;13.622;2023-05-29T11:26:28;4.55;;;3.08;;
49858;SDS011;35756;52.346;13.622;2023-05-29T11:28:58;4.20;;;2.60;;
49858;SDS011;35756;52.346;13.622;2023-05-29T11:33:56;5.75;;;2.70;;
49858;SDS011;35756;52.346;13.622;2023-05-29T11:36:24;4.82;;;2.85;;
49858;SDS011;35756;52.346;13.622;2023-05-29T11:38:51;5.68;;;2.80;;
49858;SDS011;35756;52.346;13.622;2023-05-29T11:41:16;8.38;;;3.10;;
49858;SDS011;35756;52.346;13.622;2023-05-29T11:43:42;5.97;;;3.05;;
49858;SDS011;35756;52.346;13.622;2023-05-29T11:46:17;4.75;;;2.60;;
49858;SDS011;35756;52.346;13.622;2023-05-29T11:48:47;5.10;;;2.58;;
49858;SDS011;35756;52.346;13.622;2023-05-29T11:51:12;5.13;;;3.10;;
49858;SDS011;35756;52.346;13.622;2023-05-29T11:53:42;5.18;;;2.78;;
49858;SDS011;35756;52.346;13.622;2023-05-29T11:56:08;7.68;;;2.58;;
49858;SDS011;35756;52.346;13.622;2023-05-29T11:58:35;4.28;;;2.63;;
49858;SDS011;35756;52.346;13.622;2023-05-29T12:01:01;4.57;;;2.67;;
49858;SDS011;35756;52.346;13.622;2023-05-29T12:03:26;6.20;;;3.20;;
49858;SDS011;35756;52.346;13.622;2023-05-29T12:05:52;5.35;;;2.90;;
49858;SDS011;35756;52.346;13.622;2023-05-29T12:08:23;5.20;;;2.67;;
49858;SDS011;35756;52.346;13.622;2023-05-29T12:10:50;5.38;;;2.85;;
49858;SDS011;35756;52.346;13.622;2023-05-29T12:13:18;5.07;;;2.67;;
49858;SDS011;35756;52.346;13.622;2023-05-29T12:15:44;5.22;;;2.72;;
49858;SDS011;35756;52.346;13.622;2023-05-29T12:18:09;4.75;;;2.90;;
49858;SDS011;35756;52.346;13.622;2023-05-29T12:20:34;5.35;;;2.67;;
49858;SDS011;35756;52.346;13.622;2023-05-29T12:23:01;5.30;;;2.80;;
49858;SDS011;35756;52.346;13.622;2023-05-29T12:25:26;3.70;;;2.47;;
49858;SDS011;35756;52.346;13.622;2023-05-29T12:27:52;8.70;;;2.88;;
49858;SDS011;35756;52.346;13.622;2023-05-29T12:30:20;4.57;;;2.63;;
49858;SDS011;35756;52.346;13.622;2023-05-29T12:32:46;4.47;;;2.38;;
49858;SDS011;35756;52.346;13.622;2023-05-29T12:37:42;5.03;;;2.70;;
49858;SDS011;35756;52.346;13.622;2023-05-29T12:40:15;4.68;;;2.72;;
49858;SDS011;35756;52.346;13.622;2023-05-29T12:42:42;4.55;;;2.50;;
49858;SDS011;35756;52.346;13.622;2023-05-29T12:45:07;4.75;;;2.67;;
49858;SDS011;35756;52.346;13.622;2023-05-29T12:47:33;4.00;;;2.75;;
49858;SDS011;35756;52.346;13.622;2023-05-29T12:49:58;3.90;;;2.60;;
49858;SDS011;35756;52.346;13.622;2023-05-29T12:52:24;4.50;;;2.60;;
49858;SDS011;35756;52.346;13.622;2023-05-29T12:54:49;6.30;;;2.65;;
49858;SDS011;35756;52.346;13.622;2023-05-29T12:57:14;2.83;;;2.05;;
49858;SDS011;35756;52.346;13.622;2023-05-29T12:59:40;4.43;;;2.70;;
49858;SDS011;35756;52.346;13.622;2023-05-29T13:02:05;4.60;;;2.80;;
49858;SDS011;35756;52.346;13.622;2023-05-29T13:04:33;3.83;;;2.33;;
49858;SDS011;35756;52.346;13.622;2023-05-29T13:06:58;4.32;;;2.67;;
49858;SDS011;35756;52.346;13.622;2023-05-29T13:09:24;4.95;;;2.30;;
49858;SDS011;35756;52.346;13.622;2023-05-29T13:11:49;4.47;;;2.70;;
49858;SDS011;35756;52.346;13.622;2023-05-29T13:14:15;5.95;;;2.63;;
49858;SDS011;35756;52.346;13.622;2023-05-29T13:16:40;5.15;;;2.30;;
49858;SDS011;35756;52.346;13.622;2023-05-29T13:19:05;4.90;;;3.03;;
49858;SDS011;35756;52.346;13.622;2023-05-29T13:21:31;6.05;;;2.47;;
49858;SDS011;35756;52.346;13.622;2023-05-29T13:23:57;4.97;;;2.72;;
49858;SDS011;35756;52.346;13.622;2023-05-29T13:26:22;4.82;;;2.75;;
49858;SDS011;35756;52.346;13.622;2023-05-29T13:28:48;5.95;;;2.45;;
49858;SDS011;35756;52.346;13.622;2023-05-29T13:31:13;7.38;;;3.13;;
49858;SDS011;35756;52.346;13.622;2023-05-29T13:33:38;4.28;;;2.63;;
49858;SDS011;35756;52.346;13.622;2023-05-29T13:36:04;4.85;;;2.40;;
49858;SDS011;35756;52.346;13.622;2023-05-29T13:38:30;5.68;;;2.70;;
49858;SDS011;35756;52.346;13.622;2023-05-29T13:40:55;4.75;;;2.47;;
49858;SDS011;35756;52.346;13.622;2023-05-29T13:43:20;4.25;;;2.63;;
49858;SDS011;35756;52.346;13.622;2023-05-29T13:45:46;5.60;;;2.70;;
49858;SDS011;35756;52.346;13.622;2023-05-29T13:48:11;4.20;;;3.00;;
49858;SDS011;35756;52.346;13.622;2023-05-29T13:50:36;6.10;;;2.42;;
49858;SDS011;35756;52.346;13.622;2023-05-29T13:53:01;5.25;;;2.70;;
49858;SDS011;35756;52.346;13.622;2023-05-29T13:55:27;4.50;;;2.63;;
49858;SDS011;35756;52.346;13.622;2023-05-29T13:57:52;5.60;;;2.80;;
49858;SDS011;35756;52.346;13.622;2023-05-29T14:00:17;5.00;;;2.67;;
49858;SDS011;35756;52.346;13.622;2023-05-29T14:02:43;3.33;;;2.42;;
49858;SDS011;35756;52.346;13.622;2023-05-29T14:05:08;8.15;;;2.55;;
49858;SDS011;35756;52.346;13.622;2023-05-29T14:07:35;5.55;;;2.58;;
49858;SDS011;35756;52.346;13.622;2023-05-29T14:10:01;5.55;;;2.45;;
49858;SDS011;35756;52.346;13.622;2023-05-29T14:12:26;5.47;;;2.60;;
49858;SDS011;35756;52.346;13.622;2023-05-29T14:14:52;4.82;;;2.50;;
49858;SDS011;35756;52.346;13.622;2023-05-29T14:17:17;6.78;;;2.50;;
49858;SDS011;35756;52.346;13.622;2023-05-29T14:19:42;4.88;;;2.40;;
49858;SDS011;35756;52.346;13.622;2023-05-29T14:22:10;8.18;;;2.80;;
49858;SDS011;35756;52.346;13.622;2023-05-29T14:24:35;4.90;;;2.65;;
49858;SDS011;35756;52.346;13.622;2023-05-29T14:27:01;4.50;;;2.47;;
49858;SDS011;35756;52.346;13.622;2023-05-29T14:29:27;4.63;;;2.95;;
49858;SDS011;35756;52.346;13.622;2023-05-29T14:31:52;6.43;;;2.30;;
49858;SDS011;35756;52.346;13.622;2023-05-29T14:34:17;5.28;;;2.45;;
49858;SDS011;35756;52.346;13.622;2023-05-29T14:36:43;4.32;;;2.88;;
49858;SDS011;35756;52.346;13.622;2023-05-29T14:39:09;7.47;;;3.20;;
49858;SDS011;35756;52.346;13.622;2023-05-29T14:41:35;6.10;;;2.67;;
49858;SDS011;35756;52.346;13.622;2023-05-29T14:44:00;8.43;;;2.85;;
49858;SDS011;35756;52.346;13.622;2023-05-29T14:46:26;6.07;;;2.53;;
49858;SDS011;35756;52.346;13.622;2023-05-29T14:48:53;4.70;;;2.55;;